createdAt,value
2023-01-13T00:02:00.817Z,56.80
2023-01-13T00:04:30.950Z,82.07
2023-01-13T00:07:01.202Z,83.65
2023-01-13T00:09:31.203Z,73.50
2023-01-13T00:12:01.148Z,93.25
2023-01-13T00:14:36.368Z,70.88
2023-01-13T00:17:06.712Z,56.88
2023-01-13T00:19:37.624Z,43.95
2023-01-13T00:22:07.925Z,51.38
2023-01-13T00:24:37.706Z,48.10
2023-01-13T00:27:07.760Z,37.53
2023-01-13T00:29:37.797Z,45.08
2023-01-13T00:32:08.299Z,28.33
2023-01-13T00:34:38.131Z,45.00
2023-01-13T00:37:09.410Z,80.05
2023-01-13T00:39:39.723Z,85.20
2023-01-13T00:42:28.239Z,51.28
2023-01-13T00:44:59.328Z,36.30
2023-01-13T00:47:30.362Z,28.23
2023-01-13T00:50:01.681Z,20.60
2023-01-13T00:52:35.292Z,24.98
2023-01-13T00:55:08.067Z,19.17
2023-01-13T00:57:38.492Z,36.15
2023-01-13T01:00:12.389Z,44.67
2023-01-13T01:02:42.591Z,52.13
2023-01-13T01:05:12.474Z,39.80
2023-01-13T01:07:47.679Z,45.20
2023-01-13T01:10:18.306Z,51.35
2023-01-13T01:12:48.119Z,51.50
2023-01-13T01:15:18.609Z,56.53
2023-01-13T01:17:48.487Z,81.18
2023-01-13T01:20:18.998Z,98.30
2023-01-13T01:22:49.045Z,91.78
2023-01-13T01:25:18.860Z,76.57
2023-01-13T01:28:18.516Z,62.67
2023-01-13T01:30:53.112Z,81.97
2023-01-13T01:33:26.198Z,109.80
2023-01-13T01:35:56.958Z,92.85
2023-01-13T01:38:30.049Z,73.82
2023-01-13T01:41:01.156Z,72.90
2023-01-13T01:44:08.378Z,55.97
2023-01-13T01:47:19.209Z,53.45
2023-01-13T01:49:51.781Z,64.82
2023-01-13T01:52:31.899Z,54.53
2023-01-13T01:55:12.523Z,49.28
2023-01-13T01:57:55.547Z,59.17
2023-01-13T02:00:31.179Z,78.30
2023-01-13T02:03:04.932Z,123.20
2023-01-13T02:05:39.125Z,106.45
2023-01-13T02:08:11.347Z,84.18
2023-01-13T02:10:47.460Z,96.70
2023-01-13T02:13:22.089Z,70.78
2023-01-13T02:16:19.024Z,84.50
2023-01-13T02:19:24.005Z,133.38
2023-01-13T02:22:43.206Z,99.53
2023-01-13T02:25:38.996Z,105.03
2023-01-13T02:28:41.038Z,99.45
2023-01-13T02:31:34.333Z,88.85
2023-01-13T02:34:12.671Z,68.30
2023-01-13T02:37:20.536Z,79.25
2023-01-13T02:40:02.307Z,89.13
2023-01-13T02:42:56.431Z,87.78
2023-01-13T02:45:50.316Z,66.07
2023-01-13T02:51:02.860Z,77.70
2023-01-13T02:53:52.252Z,72.40
2023-01-13T02:56:24.548Z,129.13
2023-01-13T02:58:57.341Z,125.80
2023-01-13T03:01:27.693Z,100.97
2023-01-13T03:03:57.631Z,112.07
2023-01-13T03:06:40.662Z,99.05
2023-01-13T03:09:40.302Z,98.80
2023-01-13T03:12:35.231Z,127.22
2023-01-13T03:15:24.462Z,103.32
2023-01-13T03:18:10.069Z,81.55
2023-01-13T03:27:05.232Z,56.00
2023-01-13T03:29:40.477Z,59.10
2023-01-13T03:32:23.698Z,59.28
2023-01-13T03:34:58.683Z,62.15
2023-01-13T03:37:37.548Z,54.47
2023-01-13T03:40:18.421Z,53.95
2023-01-13T03:43:14.220Z,46.17
2023-01-13T03:45:47.476Z,48.15
2023-01-13T03:48:22.564Z,85.78
2023-01-13T03:50:55.553Z,155.48
2023-01-13T03:53:32.642Z,173.13
2023-01-13T03:56:22.488Z,126.25
2023-01-13T03:58:54.691Z,71.47
2023-01-13T04:01:43.569Z,45.92
2023-01-13T04:04:27.102Z,31.40
2023-01-13T04:07:01.803Z,25.38
2023-01-13T04:09:54.760Z,24.20
2023-01-13T04:12:59.432Z,23.85
2023-01-13T04:15:40.008Z,24.92
2023-01-13T04:18:14.879Z,24.40
2023-01-13T04:20:50.399Z,24.35
2023-01-13T04:23:21.627Z,29.80
2023-01-13T04:25:52.594Z,32.10
2023-01-13T04:28:23.499Z,27.13
2023-01-13T04:30:53.974Z,45.30
2023-01-13T04:33:24.277Z,45.90
2023-01-13T04:35:54.288Z,28.58
2023-01-13T04:38:24.465Z,60.35
2023-01-13T04:40:54.252Z,68.75
2023-01-13T04:43:24.211Z,89.07
2023-01-13T04:46:20.790Z,99.75
2023-01-13T04:48:54.033Z,132.63
2023-01-13T04:51:24.751Z,114.32
2023-01-13T04:53:54.789Z,90.47
2023-01-13T04:56:24.744Z,85.15
2023-01-13T04:58:54.804Z,64.25
2023-01-13T05:01:24.858Z,73.32
2023-01-13T05:03:54.711Z,95.53
2023-01-13T05:06:26.220Z,60.97
2023-01-13T05:08:56.248Z,71.90
2023-01-13T05:11:44.568Z,81.80
2023-01-13T05:14:32.588Z,81.95
2023-01-13T05:17:03.024Z,64.60
2023-01-13T05:19:42.098Z,76.05
2023-01-13T05:38:02.363Z,66.72
2023-01-13T05:40:50.963Z,62.47
2023-01-13T05:43:23.175Z,44.95
2023-01-13T05:46:06.069Z,40.97
2023-01-13T05:48:40.873Z,59.30
2023-01-13T05:51:12.857Z,67.35
2023-01-13T05:53:43.214Z,78.93
2023-01-13T05:56:13.441Z,61.58
2023-01-13T05:58:43.391Z,84.97
2023-01-13T06:01:13.231Z,57.13
2023-01-13T06:03:43.195Z,55.28
2023-01-13T06:06:12.955Z,45.42
2023-01-13T06:08:42.900Z,50.65
2023-01-13T06:11:12.647Z,77.75
2023-01-13T06:13:42.558Z,56.10
2023-01-13T06:16:39.856Z,54.95
2023-01-13T06:19:14.087Z,47.25
2023-01-13T06:27:50.117Z,84.32
2023-01-13T06:30:20.473Z,85.50
2023-01-13T06:32:56.999Z,94.18
2023-01-13T06:35:32.729Z,87.95
2023-01-13T06:40:34.702Z,74.72
2023-01-13T06:43:18.033Z,74.20
2023-01-13T06:45:52.787Z,75.20
2023-01-13T06:48:30.160Z,61.67
2023-01-13T06:51:00.974Z,62.55
2023-01-13T06:53:30.973Z,72.80
2023-01-13T06:56:00.787Z,97.68
2023-01-13T06:58:30.747Z,171.52
2023-01-13T07:01:03.693Z,94.53
2023-01-13T07:03:33.846Z,65.18
2023-01-13T07:06:03.659Z,59.70
2023-01-13T07:08:33.657Z,36.58
2023-01-13T07:11:07.015Z,46.28
2023-01-13T07:13:55.361Z,29.60
2023-01-13T07:16:25.469Z,24.13
2023-01-13T07:18:57.692Z,27.88
2023-01-13T07:37:11.303Z,27.17
2023-01-13T07:39:41.455Z,26.83
2023-01-13T07:42:29.903Z,40.85
2023-01-13T07:45:00.143Z,39.75
2023-01-13T07:47:31.071Z,38.17
2023-01-13T07:50:01.205Z,84.32
2023-01-13T07:52:35.428Z,194.48
2023-01-13T07:55:05.919Z,265.77
2023-01-13T07:57:36.004Z,185.88
2023-01-13T08:00:07.129Z,166.10
2023-01-13T08:02:37.184Z,178.13
2023-01-13T08:05:07.451Z,159.43
2023-01-13T08:07:37.956Z,108.05
2023-01-13T08:10:08.656Z,90.38
2023-01-13T08:12:57.200Z,73.85
2023-01-13T08:15:27.427Z,96.90
2023-01-13T08:17:57.779Z,116.40
2023-01-13T08:20:30.363Z,146.02
2023-01-13T08:38:43.995Z,106.40
2023-01-13T08:41:17.059Z,112.88
2023-01-13T08:43:47.177Z,81.05
2023-01-13T08:46:16.985Z,118.75
2023-01-13T08:48:47.767Z,52.40
2023-01-13T08:51:17.890Z,96.53
2023-01-13T08:54:30.022Z,65.82
2023-01-13T08:57:13.168Z,71.45
2023-01-13T08:59:50.475Z,93.63
2023-01-13T09:02:22.999Z,106.65
2023-01-13T09:04:56.253Z,57.92
2023-01-13T09:07:26.209Z,55.10
2023-01-13T09:09:58.009Z,55.13
2023-01-13T09:12:48.038Z,83.90
2023-01-13T09:15:21.862Z,25.85
2023-01-13T09:17:52.122Z,35.83
2023-01-13T09:23:17.727Z,111.55
2023-01-13T09:25:48.595Z,53.63
2023-01-13T09:28:18.595Z,69.57
2023-01-13T09:30:48.868Z,66.60
2023-01-13T09:33:37.297Z,129.32
2023-01-13T09:36:09.560Z,98.80
2023-01-13T09:38:41.247Z,55.40
2023-01-13T09:41:43.304Z,28.58
2023-01-13T09:44:27.936Z,58.92
2023-01-13T09:47:05.203Z,85.95
2023-01-13T09:49:41.907Z,62.38
2023-01-13T09:52:25.098Z,54.42
2023-01-13T09:55:06.119Z,55.35
2023-01-13T09:57:42.608Z,44.10
2023-01-13T10:00:24.086Z,85.07
2023-01-13T10:05:42.562Z,78.78
2023-01-13T10:08:27.575Z,70.70
2023-01-13T10:11:24.697Z,65.22
2023-01-13T10:14:12.585Z,127.03
2023-01-13T10:17:10.349Z,53.60
2023-01-13T10:19:53.008Z,45.15
2023-01-13T10:31:55.054Z,44.03
2023-01-13T10:34:27.193Z,35.25
2023-01-13T10:37:09.304Z,42.92
2023-01-13T10:39:48.264Z,44.55
2023-01-13T10:42:22.988Z,32.58
2023-01-13T10:44:58.714Z,43.75
2023-01-13T10:47:30.156Z,35.33
2023-01-13T10:50:15.897Z,36.67
2023-01-13T10:53:03.437Z,43.25
2023-01-13T10:55:38.110Z,32.00
2023-01-13T10:58:22.138Z,35.97
2023-01-13T11:01:01.947Z,28.52
2023-01-13T11:03:44.237Z,16.45
2023-01-13T11:06:27.098Z,16.77
2023-01-13T11:08:59.588Z,23.60
2023-01-13T11:11:45.775Z,28.65
2023-01-13T11:14:41.891Z,8.07
2023-01-13T11:17:41.855Z,18.42
2023-01-13T11:22:59.201Z,38.42
2023-01-13T11:25:45.755Z,31.95
2023-01-13T11:28:43.045Z,21.60
2023-01-13T11:31:25.696Z,16.70
2023-01-13T11:34:01.660Z,20.13
2023-01-13T11:36:44.620Z,20.55
2023-01-13T11:39:29.491Z,26.95
2023-01-13T11:42:34.272Z,23.98
2023-01-13T11:45:28.733Z,23.80
2023-01-13T11:48:27.439Z,20.85
2023-01-13T11:51:29.575Z,30.42
2023-01-13T11:54:39.514Z,33.22
2023-01-13T11:57:30.937Z,24.52
2023-01-13T12:00:54.023Z,35.38
2023-01-13T12:03:54.899Z,47.10
2023-01-13T12:06:35.490Z,38.03
2023-01-13T12:09:56.390Z,50.05
2023-01-13T12:15:23.747Z,66.72
2023-01-13T12:18:34.551Z,46.50
2023-01-13T12:21:37.706Z,67.65
2023-01-13T12:24:27.893Z,52.13
2023-01-13T12:28:00.062Z,53.65
2023-01-13T12:31:03.538Z,47.92
2023-01-13T12:34:04.236Z,41.88
2023-01-13T12:37:12.971Z,41.30
2023-01-13T12:43:45.864Z,37.42
2023-01-13T12:49:23.197Z,34.40
2023-01-13T12:51:58.824Z,28.25
2023-01-13T12:54:55.031Z,31.35
2023-01-13T12:57:31.054Z,29.45
2023-01-13T13:00:07.210Z,33.60
2023-01-13T13:02:43.740Z,36.70
2023-01-13T13:05:16.942Z,39.25
2023-01-13T13:07:50.717Z,40.85
2023-01-13T13:10:31.642Z,38.20
2023-01-13T13:13:21.797Z,36.33
2023-01-13T13:15:53.132Z,33.55
2023-01-13T13:18:28.441Z,44.15
2023-01-13T13:21:04.063Z,32.25
2023-01-13T13:24:04.224Z,35.30
2023-01-13T13:26:38.740Z,38.22
2023-01-13T13:33:50.752Z,41.53
2023-01-13T13:36:42.771Z,35.92
2023-01-13T13:39:51.930Z,30.98
2023-01-13T13:42:43.138Z,24.35
2023-01-13T13:45:41.915Z,25.67
2023-01-13T13:48:27.374Z,29.55
2023-01-13T13:51:04.961Z,30.60
2023-01-13T13:53:40.738Z,35.28
2023-01-13T13:56:24.398Z,22.42
2023-01-13T13:58:54.915Z,24.95
2023-01-13T14:01:28.369Z,24.88
2023-01-13T14:04:22.065Z,24.27
2023-01-13T14:06:55.919Z,20.42
2023-01-13T14:09:29.736Z,21.42
2023-01-13T14:12:05.385Z,26.50
2023-01-13T14:14:35.361Z,22.58
2023-01-13T14:17:06.332Z,15.15
2023-01-13T14:19:37.452Z,16.65
2023-01-13T14:22:07.483Z,20.17
2023-01-13T14:24:48.742Z,22.75
2023-01-13T14:27:20.417Z,21.02
2023-01-13T14:29:53.490Z,19.67
2023-01-13T14:32:27.798Z,16.02
2023-01-13T14:34:57.785Z,14.57
2023-01-13T14:37:34.273Z,15.80
2023-01-13T14:40:05.171Z,18.27
2023-01-13T14:42:36.488Z,20.40
2023-01-13T14:45:26.480Z,22.10
2023-01-13T14:47:56.753Z,22.92
2023-01-13T14:50:32.688Z,21.73
2023-01-13T14:53:03.431Z,18.65
2023-01-13T14:55:38.492Z,17.27
2023-01-13T15:00:29.340Z,17.15
2023-01-13T15:02:59.587Z,14.75
2023-01-13T15:05:29.376Z,12.77
2023-01-13T15:08:33.450Z,17.45
2023-01-13T15:11:08.394Z,21.58
2023-01-13T15:13:58.129Z,21.88
2023-01-13T15:16:29.575Z,25.98
2023-01-13T15:19:00.175Z,29.15
2023-01-13T15:21:30.075Z,29.80
2023-01-13T15:24:01.028Z,19.83
2023-01-13T15:26:33.612Z,25.75
2023-01-13T15:29:06.422Z,17.52
2023-01-13T15:31:36.478Z,20.85
2023-01-13T15:34:06.349Z,15.98
2023-01-13T15:36:38.383Z,26.80
2023-01-13T15:39:11.505Z,15.80
2023-01-13T15:41:59.501Z,13.95
2023-01-13T15:44:47.758Z,21.23
2023-01-13T15:47:17.838Z,16.70
2023-01-13T15:49:48.474Z,24.90
2023-01-13T15:52:22.939Z,14.75
2023-01-13T15:54:54.279Z,9.88
2023-01-13T15:57:28.650Z,20.02
2023-01-13T16:00:02.164Z,24.05
2023-01-13T16:02:36.427Z,9.43
2023-01-13T16:05:07.503Z,21.92
2023-01-13T16:07:37.447Z,22.15
2023-01-13T16:10:16.334Z,18.23
2023-01-13T16:12:46.636Z,19.95
2023-01-13T16:15:19.460Z,20.98
2023-01-13T16:17:55.797Z,19.65
2023-01-13T16:20:26.382Z,20.10
2023-01-13T16:22:56.223Z,31.63
2023-01-13T16:25:28.911Z,37.30
2023-01-13T16:27:58.848Z,21.60
2023-01-13T16:30:31.102Z,32.33
2023-01-13T16:33:01.581Z,28.75
2023-01-13T16:35:33.397Z,29.80
2023-01-13T16:38:03.616Z,21.00
2023-01-13T16:40:38.279Z,29.27
2023-01-13T16:43:08.581Z,25.65
2023-01-13T16:45:38.411Z,25.77
2023-01-13T16:48:21.170Z,28.58
2023-01-13T16:50:51.247Z,22.67
2023-01-13T16:53:21.290Z,28.40
2023-01-13T16:55:51.459Z,28.77
2023-01-13T16:58:22.614Z,37.72
2023-01-13T17:00:53.973Z,25.75
2023-01-13T17:03:23.992Z,36.95
2023-01-13T17:05:53.766Z,31.23
2023-01-13T17:08:39.634Z,21.75
2023-01-13T17:13:41.877Z,29.48
2023-01-13T17:16:23.853Z,28.45
2023-01-13T17:18:55.865Z,30.25
2023-01-13T17:21:25.865Z,35.85
2023-01-13T17:23:55.833Z,37.42
2023-01-13T17:26:51.842Z,36.08
2023-01-13T17:29:27.345Z,49.83
2023-01-13T17:31:57.842Z,42.60
2023-01-13T17:34:33.431Z,62.63
2023-01-13T17:37:03.513Z,24.35
2023-01-13T17:39:45.860Z,15.20
2023-01-13T17:42:37.042Z,17.58
2023-01-13T17:45:15.443Z,14.15
2023-01-13T17:47:50.954Z,10.10
2023-01-13T17:50:52.725Z,14.65
2023-01-13T17:53:23.004Z,14.10
2023-01-13T17:55:57.139Z,10.63
2023-01-13T17:58:28.110Z,8.88
2023-01-13T18:01:11.877Z,9.82
2023-01-13T18:03:46.157Z,48.63
2023-01-13T18:06:22.803Z,27.90
2023-01-13T18:08:55.357Z,7.47
2023-01-13T18:14:17.538Z,2.92
2023-01-13T18:16:47.779Z,3.67
2023-01-13T18:19:38.784Z,3.42
2023-01-13T18:22:29.724Z,1.80
2023-01-13T18:25:18.841Z,2.40
2023-01-13T18:27:59.560Z,63.47
2023-01-13T18:36:13.551Z,25.98
2023-01-13T18:38:50.237Z,46.20
2023-01-13T18:41:50.002Z,36.58
2023-01-13T18:47:06.103Z,35.33
2023-01-13T18:49:55.055Z,34.80
2023-01-13T18:52:29.360Z,35.80
2023-01-13T18:55:00.330Z,30.25
2023-01-13T18:57:31.267Z,33.70
2023-01-13T19:00:04.428Z,34.97
2023-01-13T19:02:36.068Z,28.02
2023-01-13T19:05:06.964Z,31.08
2023-01-13T19:07:38.885Z,33.65
2023-01-13T19:10:11.161Z,40.45
2023-01-13T19:12:43.953Z,31.77
2023-01-13T19:15:15.410Z,28.48
2023-01-13T19:18:10.682Z,21.77
2023-01-13T19:20:42.619Z,18.17
2023-01-13T19:23:14.977Z,18.27
2023-01-13T19:25:47.187Z,12.68
2023-01-13T19:28:17.751Z,17.15
2023-01-13T19:30:48.652Z,14.35
2023-01-13T19:33:20.751Z,10.43
2023-01-13T19:35:56.986Z,10.73
2023-01-13T19:38:30.181Z,14.35
2023-01-13T19:41:03.792Z,11.93
2023-01-13T19:43:54.243Z,10.15
2023-01-13T19:46:27.633Z,8.25
2023-01-13T19:48:59.919Z,8.45
2023-01-13T19:51:30.321Z,11.65
2023-01-13T19:54:02.138Z,13.43
2023-01-13T19:56:32.389Z,6.57
2023-01-13T19:59:02.653Z,4.35
2023-01-13T20:01:38.072Z,5.28
2023-01-13T20:04:15.693Z,7.22
2023-01-13T20:06:46.372Z,10.43
2023-01-13T20:09:16.397Z,7.07
2023-01-13T20:11:48.391Z,5.90
2023-01-13T20:14:19.343Z,17.42
2023-01-13T20:16:49.642Z,7.97
2023-01-13T20:19:20.447Z,8.43
2023-01-13T20:21:51.288Z,7.13
2023-01-13T20:24:21.405Z,4.75
2023-01-13T20:26:51.657Z,4.88
2023-01-13T20:29:25.875Z,6.32
2023-01-13T20:31:56.737Z,33.83
2023-01-13T20:34:31.542Z,33.65
2023-01-13T20:37:03.566Z,105.72
2023-01-13T20:39:35.982Z,152.27
2023-01-13T20:42:24.465Z,89.05
2023-01-13T20:44:56.753Z,76.78
2023-01-13T20:47:29.290Z,72.75
2023-01-13T20:50:01.319Z,45.50
2023-01-13T20:52:31.728Z,64.78
2023-01-13T20:55:01.851Z,60.60
2023-01-13T20:57:34.624Z,47.42
2023-01-13T21:00:06.708Z,37.33
2023-01-13T21:02:37.752Z,22.10
2023-01-13T21:05:13.765Z,12.60
2023-01-13T21:10:14.186Z,46.83
2023-01-13T21:13:03.385Z,56.05
2023-01-13T21:15:33.315Z,78.88
2023-01-13T21:18:21.044Z,82.40
2023-01-13T21:20:52.698Z,98.13
2023-01-13T21:23:22.772Z,41.25
2023-01-13T21:25:52.558Z,40.00
2023-01-13T21:28:22.609Z,41.10
2023-01-13T21:30:55.625Z,38.08
2023-01-13T21:33:29.855Z,54.40
2023-01-13T21:36:00.836Z,76.65
2023-01-13T21:38:34.357Z,54.90
2023-01-13T21:42:06.996Z,42.22
2023-01-13T21:44:55.793Z,103.90
2023-01-13T21:47:52.817Z,62.22
2023-01-13T21:50:27.203Z,68.93
2023-01-13T21:53:00.923Z,34.35
2023-01-13T21:55:31.320Z,21.77
2023-01-13T21:58:12.530Z,42.53
2023-01-13T22:00:46.008Z,88.65
2023-01-13T22:03:21.544Z,48.03
2023-01-13T22:05:57.054Z,61.65
2023-01-13T22:08:28.367Z,37.90
2023-01-13T22:10:58.592Z,30.70
2023-01-13T22:13:48.141Z,29.77
2023-01-13T22:16:18.822Z,23.25
2023-01-13T22:18:53.669Z,13.95
2023-01-13T22:21:23.949Z,15.88
2023-01-13T22:23:54.364Z,88.97
2023-01-13T22:26:26.161Z,239.63
2023-01-13T22:28:58.723Z,36.70
2023-01-13T22:31:33.020Z,25.80
2023-01-13T22:34:08.043Z,24.40
2023-01-13T22:36:38.902Z,20.60
2023-01-13T22:39:13.579Z,32.95
2023-01-13T22:41:48.797Z,31.05
2023-01-13T22:44:25.324Z,22.00
2023-01-13T22:46:56.400Z,16.48
2023-01-13T22:49:30.410Z,12.55
2023-01-13T22:52:01.173Z,12.10
2023-01-13T22:54:40.162Z,16.92
2023-01-13T22:57:14.708Z,14.32
2023-01-13T22:59:46.004Z,16.27
2023-01-13T23:02:19.387Z,8.68
2023-01-13T23:04:52.466Z,12.65
2023-01-13T23:07:24.287Z,14.95
2023-01-13T23:09:56.255Z,14.38
2023-01-13T23:12:28.741Z,4.85
2023-01-13T23:15:02.228Z,10.25
2023-01-13T23:17:32.865Z,7.45
2023-01-13T23:20:05.165Z,7.10
2023-01-13T23:22:41.282Z,7.78
2023-01-13T23:25:19.063Z,6.32
2023-01-13T23:27:50.549Z,8.95
2023-01-13T23:30:21.632Z,5.20
2023-01-13T23:32:53.868Z,6.03
2023-01-13T23:35:27.544Z,4.78
2023-01-13T23:37:58.737Z,6.47
2023-01-13T23:40:34.631Z,6.00
2023-01-13T23:43:07.298Z,7.57
2023-01-13T23:45:47.507Z,7.03
2023-01-13T23:48:21.387Z,7.07
2023-01-13T23:51:04.222Z,4.28
2023-01-13T23:53:52.475Z,4.03
2023-01-13T23:56:27.955Z,4.57
2023-01-13T23:59:01.610Z,3.67
